Portada
METAR-TAF:

METAR-TAF

Aeroports :

Mildura, Austràlia

latitud: 34-13-45S, longitud: 142-05-08E, altitud: 51 m

Observació

L'informe es va fer fa 16 minuts, a les 03:00 UTC
Vent 10 kt del Nord
Temperatura 24°C
Humitat 50%
Pressió 1007 hPa
Visibilitat 10 km o més
Núvols disperses a una alçada de 4100 ft
Núvols disperses a una alçada de 4700 ft
Cel ennuvolat a una alçada de 5300 ft

METAR: YMIA 200300Z AUTO 35010KT 9999 // SCT041 SCT047 BKN053 24/13 Q1007

Hora: 13:16 (03:16 UTC)


TAF: manca

Observacions i pronòstics meteorològics de més de 4000 aeroports (METAR i TAF).

Les estacions disponibles són els punts grocs i vermells al mapa.

Posi el ratolí al punt desitjat per veure el nom de l'estació.

Feu clic per veure les observacions i els pronòstics meteorològics.

Per canviar el mapa: feu clic els botons verds amb una creu de color negre per apropar; al botó verd amb un guió per allunyar la imatge; o en les fletxes verdes per a mapes adjacents.


METAR-TAF: